createdAt,value
2022-12-03T00:00:20.791Z,6.27
2022-12-03T00:03:09.716Z,6.25
2022-12-03T00:05:39.692Z,6.22
2022-12-03T00:08:09.877Z,6.20
2022-12-03T00:10:38.129Z,6.15
2022-12-03T00:13:05.923Z,6.16
2022-12-03T00:15:33.727Z,6.14
2022-12-03T00:18:02.054Z,6.13
2022-12-03T00:20:29.956Z,6.12
2022-12-03T00:22:57.910Z,6.13
2022-12-03T00:25:26.137Z,6.12
2022-12-03T00:27:54.422Z,6.10
2022-12-03T00:30:22.315Z,6.08
2022-12-03T00:32:50.309Z,6.08
2022-12-03T00:35:18.455Z,6.10
2022-12-03T00:37:46.590Z,6.12
2022-12-03T00:40:14.502Z,6.14
2022-12-03T00:42:42.879Z,6.17
2022-12-03T00:45:11.217Z,6.17
2022-12-03T00:47:39.124Z,6.17
2022-12-03T00:50:08.284Z,6.17
2022-12-03T00:52:36.080Z,6.16
2022-12-03T00:55:04.584Z,6.14
2022-12-03T00:57:32.700Z,6.13
2022-12-03T01:00:00.554Z,6.11
2022-12-03T01:02:28.445Z,6.13
2022-12-03T01:04:56.983Z,6.14
2022-12-03T01:07:25.245Z,6.13
2022-12-03T01:09:53.134Z,6.13
2022-12-03T01:12:21.355Z,6.11
2022-12-03T01:14:49.409Z,6.10
2022-12-03T01:17:17.425Z,6.08
2022-12-03T01:19:48.423Z,6.07
2022-12-03T01:22:16.615Z,6.06
2022-12-03T01:24:44.573Z,6.08
2022-12-03T01:27:12.791Z,6.08
2022-12-03T01:29:40.785Z,6.06
2022-12-03T01:32:22.217Z,6.08
2022-12-03T01:34:53.867Z,6.09
2022-12-03T01:37:24.895Z,6.09
2022-12-03T01:39:52.971Z,6.08
2022-12-03T01:42:24.778Z,6.08
2022-12-03T01:44:57.043Z,6.09
2022-12-03T01:47:30.937Z,6.10
2022-12-03T01:50:04.172Z,6.12
2022-12-03T01:52:37.669Z,6.14
2022-12-03T01:55:11.959Z,6.14
2022-12-03T01:57:48.886Z,6.10
2022-12-03T02:00:23.862Z,6.05
2022-12-03T02:02:55.493Z,6.00
2022-12-03T02:05:26.632Z,5.99
2022-12-03T02:07:55.602Z,5.99
2022-12-03T02:10:27.384Z,5.98
2022-12-03T02:12:59.985Z,6.00
2022-12-03T02:15:27.919Z,6.02
2022-12-03T02:17:57.778Z,6.03
2022-12-03T02:20:26.248Z,6.04
2022-12-03T02:22:54.021Z,6.04
2022-12-03T02:25:26.159Z,6.02
2022-12-03T02:27:55.530Z,6.02
2022-12-03T02:30:26.032Z,5.98
2022-12-03T02:32:54.732Z,5.98
2022-12-03T02:35:29.232Z,5.96
2022-12-03T02:38:03.274Z,5.96
2022-12-03T02:40:33.562Z,5.93
2022-12-03T02:43:03.400Z,5.92
2022-12-03T02:45:39.732Z,5.90
2022-12-03T02:48:21.076Z,5.88
2022-12-03T02:50:53.665Z,5.85
2022-12-03T02:53:28.738Z,5.81
2022-12-03T02:55:59.179Z,5.79
2022-12-03T02:58:29.813Z,5.79
2022-12-03T03:00:58.982Z,5.80
2022-12-03T03:03:29.199Z,5.81
2022-12-03T03:05:57.855Z,5.80
2022-12-03T03:08:27.034Z,5.78
2022-12-03T03:10:56.613Z,5.77
2022-12-03T03:13:24.747Z,5.76
2022-12-03T03:15:53.454Z,5.75
2022-12-03T03:18:21.445Z,5.76
2022-12-03T03:20:49.537Z,5.77
2022-12-03T03:23:22.421Z,5.75
2022-12-03T03:25:57.073Z,5.74
2022-12-03T03:28:26.019Z,5.75
2022-12-03T03:30:54.179Z,5.75
2022-12-03T03:33:22.311Z,5.74
2022-12-03T03:35:50.408Z,5.73
2022-12-03T03:38:21.040Z,5.71
2022-12-03T03:40:51.320Z,5.69
2022-12-03T03:43:22.139Z,5.70
2022-12-03T03:45:51.653Z,5.71
2022-12-03T03:48:21.283Z,5.73
2022-12-03T03:50:50.950Z,5.74
2022-12-03T03:53:20.641Z,5.74
2022-12-03T03:55:49.388Z,5.72
2022-12-03T03:58:17.502Z,5.71
2022-12-03T04:00:46.755Z,5.70
2022-12-03T04:03:14.938Z,5.69
2022-12-03T04:05:42.799Z,5.67
2022-12-03T04:08:10.817Z,5.68
2022-12-03T04:10:57.091Z,5.68
2022-12-03T04:13:24.930Z,5.65
2022-12-03T04:15:52.891Z,5.62
2022-12-03T04:18:39.546Z,5.56
2022-12-03T04:21:26.139Z,5.48
2022-12-03T04:23:54.143Z,5.43
2022-12-03T04:26:40.654Z,5.41
2022-12-03T04:29:08.709Z,5.37
2022-12-03T04:31:55.519Z,5.35
2022-12-03T04:34:42.091Z,5.30
2022-12-03T04:37:10.355Z,5.24
2022-12-03T04:39:39.028Z,5.18
2022-12-03T04:42:07.315Z,5.12
2022-12-03T04:44:38.285Z,5.09
2022-12-03T04:47:12.489Z,5.08
2022-12-03T04:49:46.464Z,5.07
2022-12-03T04:52:16.596Z,5.03
2022-12-03T04:54:45.306Z,4.98
2022-12-03T04:57:13.764Z,4.95
2022-12-03T04:59:41.701Z,4.95
2022-12-03T05:02:09.768Z,4.93
2022-12-03T05:04:37.792Z,4.89
2022-12-03T05:07:05.717Z,4.81
2022-12-03T05:09:33.610Z,4.73
2022-12-03T05:12:01.600Z,4.67
2022-12-03T05:14:30.198Z,4.64
2022-12-03T05:16:58.210Z,4.63
2022-12-03T05:19:46.376Z,4.60
2022-12-03T05:22:14.675Z,4.58
2022-12-03T05:24:43.214Z,4.55
2022-12-03T05:27:11.225Z,4.52
2022-12-03T05:29:39.122Z,4.49
2022-12-03T05:32:07.016Z,4.45
2022-12-03T05:34:34.928Z,4.44
2022-12-03T05:37:02.930Z,4.41
2022-12-03T05:39:30.781Z,4.40
2022-12-03T05:42:17.174Z,4.40
2022-12-03T05:44:45.063Z,4.41
2022-12-03T05:47:12.987Z,4.43
2022-12-03T05:49:41.069Z,4.43
2022-12-03T05:52:08.960Z,4.41
2022-12-03T05:54:36.989Z,4.40
2022-12-03T05:57:06.220Z,4.40
2022-12-03T05:59:34.454Z,4.39
2022-12-03T06:02:02.916Z,4.35
2022-12-03T06:04:31.328Z,4.32
2022-12-03T06:06:59.130Z,4.34
2022-12-03T06:09:26.998Z,4.36
2022-12-03T06:11:55.133Z,4.37
2022-12-03T06:14:23.152Z,4.38
2022-12-03T06:16:50.956Z,4.38
2022-12-03T06:19:19.061Z,4.38
2022-12-03T06:21:46.905Z,4.38
2022-12-03T06:24:15.044Z,4.38
2022-12-03T06:26:43.316Z,4.37
2022-12-03T06:29:11.291Z,4.37
2022-12-03T06:31:39.220Z,4.41
2022-12-03T06:34:07.865Z,4.44
2022-12-03T06:36:35.844Z,4.46
2022-12-03T06:39:03.919Z,4.48
2022-12-03T06:41:32.706Z,4.49
2022-12-03T06:44:00.686Z,4.48
2022-12-03T06:46:28.655Z,4.47
2022-12-03T06:48:56.611Z,4.47
2022-12-03T06:51:24.465Z,4.48
2022-12-03T06:53:52.411Z,4.51
2022-12-03T06:56:22.489Z,4.51
2022-12-03T06:58:50.878Z,4.53
2022-12-03T07:01:18.881Z,4.53
2022-12-03T07:03:47.579Z,4.55
2022-12-03T07:06:15.499Z,4.58
2022-12-03T07:08:43.348Z,4.57
2022-12-03T07:11:31.441Z,4.56
2022-12-03T07:14:05.007Z,4.59
2022-12-03T07:16:35.987Z,4.60
2022-12-03T07:19:05.905Z,4.58
2022-12-03T07:21:33.927Z,4.60
2022-12-03T07:24:02.694Z,4.61
2022-12-03T07:26:30.642Z,4.64
2022-12-03T07:28:58.906Z,4.63
2022-12-03T07:31:26.956Z,4.61
2022-12-03T07:33:56.054Z,4.61
2022-12-03T07:36:24.006Z,4.59
2022-12-03T07:38:52.301Z,4.57
2022-12-03T07:41:20.170Z,4.59
2022-12-03T07:43:48.035Z,4.66
2022-12-03T07:46:16.418Z,4.75
2022-12-03T07:48:44.255Z,4.83
2022-12-03T07:51:15.154Z,4.91
2022-12-03T07:53:43.919Z,4.99
2022-12-03T07:56:11.878Z,5.08
2022-12-03T07:58:39.796Z,5.15
2022-12-03T08:01:07.930Z,5.21
2022-12-03T08:03:35.978Z,5.28
2022-12-03T08:06:04.224Z,5.34
2022-12-03T08:08:32.288Z,5.46
2022-12-03T08:11:01.970Z,5.55
2022-12-03T08:13:30.715Z,5.66
2022-12-03T08:16:02.438Z,5.73
2022-12-03T08:18:30.320Z,5.78
2022-12-03T08:20:58.345Z,5.82
2022-12-03T08:23:26.410Z,5.84
2022-12-03T08:25:54.268Z,5.87
2022-12-03T08:28:25.690Z,5.90
2022-12-03T08:31:02.452Z,5.95
2022-12-03T08:33:35.269Z,6.05
2022-12-03T08:36:19.327Z,6.12
2022-12-03T08:39:00.606Z,6.18
2022-12-03T08:41:48.651Z,6.23
2022-12-03T08:44:30.261Z,6.28
2022-12-03T08:47:09.669Z,6.34
2022-12-03T08:49:37.762Z,6.40
2022-12-03T08:52:32.686Z,6.45
2022-12-03T08:55:12.988Z,6.52
2022-12-03T08:57:41.398Z,6.59
2022-12-03T09:00:21.444Z,6.67
2022-12-03T09:02:52.555Z,6.75
2022-12-03T09:05:28.167Z,6.81
2022-12-03T09:07:56.359Z,6.87
2022-12-03T09:10:24.504Z,6.94
2022-12-03T09:12:52.667Z,6.99
2022-12-03T09:15:20.826Z,7.03
2022-12-03T09:17:50.943Z,7.07
2022-12-03T09:20:18.842Z,7.13
2022-12-03T09:22:46.773Z,7.18
2022-12-03T09:25:15.029Z,7.24
2022-12-03T09:27:43.043Z,7.32
2022-12-03T09:30:11.438Z,7.38
2022-12-03T09:32:39.365Z,7.44
2022-12-03T09:35:08.436Z,7.52
2022-12-03T09:37:36.662Z,7.57
2022-12-03T09:40:05.794Z,7.61
2022-12-03T09:42:34.627Z,7.67
2022-12-03T09:45:04.579Z,7.73
2022-12-03T09:47:32.668Z,7.78
2022-12-03T09:50:00.574Z,7.82
2022-12-03T09:52:34.049Z,7.85
2022-12-03T09:55:07.935Z,7.90
2022-12-03T09:57:36.024Z,7.94
2022-12-03T10:00:14.815Z,7.97
2022-12-03T10:02:42.959Z,8.01
2022-12-03T10:05:11.420Z,8.05
2022-12-03T10:07:40.470Z,8.07
2022-12-03T10:10:16.626Z,8.11
2022-12-03T10:12:45.049Z,8.15
2022-12-03T10:15:14.876Z,8.21
2022-12-03T10:17:43.058Z,8.25
2022-12-03T10:20:14.506Z,8.27
2022-12-03T10:22:42.494Z,8.31
2022-12-03T10:25:19.311Z,8.36
2022-12-03T10:28:01.172Z,8.42
2022-12-03T10:30:30.364Z,8.48
2022-12-03T10:32:59.136Z,8.53
2022-12-03T10:35:39.644Z,8.57
2022-12-03T10:38:19.695Z,8.61
2022-12-03T10:40:48.443Z,8.68
2022-12-03T10:43:21.480Z,8.72
2022-12-03T10:46:10.837Z,8.74
2022-12-03T10:48:38.840Z,8.77
2022-12-03T10:51:21.467Z,8.82
2022-12-03T10:53:50.719Z,8.87
2022-12-03T10:56:25.293Z,8.92
2022-12-03T10:58:53.595Z,8.96
2022-12-03T11:01:24.044Z,9.01
2022-12-03T11:03:54.669Z,9.09
2022-12-03T11:06:23.575Z,9.14
2022-12-03T11:08:57.803Z,9.20
2022-12-03T11:11:31.686Z,9.26
2022-12-03T11:14:04.492Z,9.31
2022-12-03T11:16:41.621Z,9.35
2022-12-03T11:19:12.375Z,9.39
2022-12-03T11:22:00.421Z,9.43
2022-12-03T11:24:28.710Z,9.45
2022-12-03T11:26:56.555Z,9.48
2022-12-03T11:30:01.040Z,9.52
2022-12-03T11:32:37.949Z,9.54
2022-12-03T11:35:24.125Z,9.56
2022-12-03T11:37:52.852Z,9.58
2022-12-03T11:40:20.774Z,9.60
2022-12-03T11:42:49.582Z,9.64
2022-12-03T11:45:28.870Z,9.69
2022-12-03T11:47:59.835Z,9.74
2022-12-03T11:50:37.626Z,9.79
2022-12-03T11:53:26.250Z,9.82
2022-12-03T11:56:11.127Z,9.83
2022-12-03T11:58:43.077Z,9.86
2022-12-03T12:01:11.940Z,9.90
2022-12-03T12:03:50.102Z,9.92
2022-12-03T12:06:21.182Z,9.94
2022-12-03T12:08:52.428Z,9.96
2022-12-03T12:11:43.856Z,10.00
2022-12-03T12:14:13.485Z,10.03
2022-12-03T12:16:51.830Z,10.06
2022-12-03T12:19:37.018Z,10.12
2022-12-03T12:22:25.085Z,10.16
2022-12-03T12:24:54.057Z,10.18
2022-12-03T12:27:35.842Z,10.22
2022-12-03T12:30:14.967Z,10.24
2022-12-03T12:32:48.925Z,10.26
2022-12-03T12:35:28.770Z,10.28
2022-12-03T12:38:12.623Z,10.28
2022-12-03T12:40:43.127Z,10.30
2022-12-03T12:43:23.580Z,10.29
2022-12-03T12:45:54.923Z,10.29
2022-12-03T12:48:22.748Z,10.28
2022-12-03T12:50:58.615Z,10.28
2022-12-03T12:53:30.868Z,10.29
2022-12-03T12:56:01.390Z,10.34
2022-12-03T12:58:32.402Z,10.41
2022-12-03T13:01:05.886Z,10.47
2022-12-03T13:03:37.389Z,10.52
2022-12-03T13:06:05.708Z,10.57
2022-12-03T13:08:40.778Z,10.56
2022-12-03T13:11:37.160Z,10.55
2022-12-03T13:14:23.106Z,10.54
2022-12-03T13:16:54.748Z,10.56
2022-12-03T13:19:25.968Z,10.58
2022-12-03T13:21:56.163Z,10.57
2022-12-03T13:24:27.028Z,10.54
2022-12-03T13:26:55.312Z,10.50
2022-12-03T13:29:24.346Z,10.47
2022-12-03T13:31:55.955Z,10.45
2022-12-03T13:34:31.164Z,10.42
2022-12-03T13:37:01.332Z,10.37
2022-12-03T13:39:41.380Z,10.30
2022-12-03T13:42:40.525Z,10.21
2022-12-03T13:45:17.600Z,10.11
2022-12-03T13:47:49.068Z,10.05
2022-12-03T13:50:28.998Z,10.02
2022-12-03T13:52:57.609Z,10.00
2022-12-03T13:55:28.016Z,9.94
2022-12-03T13:57:56.513Z,9.91
2022-12-03T14:00:24.569Z,9.85
2022-12-03T14:02:52.451Z,9.82
2022-12-03T14:05:21.820Z,9.72
2022-12-03T14:07:50.015Z,9.63
2022-12-03T14:10:18.464Z,9.54
2022-12-03T14:12:46.370Z,9.46
2022-12-03T14:15:14.255Z,9.41
2022-12-03T14:17:42.822Z,9.39
2022-12-03T14:20:11.412Z,9.34
2022-12-03T14:22:39.329Z,9.31
2022-12-03T14:25:08.247Z,9.26
2022-12-03T14:27:36.333Z,9.22
2022-12-03T14:30:04.968Z,9.15
2022-12-03T14:32:32.967Z,9.11
2022-12-03T14:35:03.957Z,9.04
2022-12-03T14:37:36.098Z,8.98
2022-12-03T14:40:04.675Z,8.96
2022-12-03T14:42:32.552Z,8.94
2022-12-03T14:45:00.823Z,8.93
2022-12-03T14:47:28.738Z,8.93
2022-12-03T14:49:57.229Z,8.87
2022-12-03T14:52:25.267Z,8.79
2022-12-03T14:54:53.344Z,8.75
2022-12-03T14:57:21.269Z,8.70
2022-12-03T14:59:49.353Z,8.64
2022-12-03T15:02:17.732Z,8.59
2022-12-03T15:04:45.711Z,8.56
2022-12-03T15:07:13.613Z,8.52
2022-12-03T15:09:41.467Z,8.50
2022-12-03T15:12:09.407Z,8.49
2022-12-03T15:14:37.381Z,8.45
2022-12-03T15:17:05.542Z,8.43
2022-12-03T15:19:33.750Z,8.42
2022-12-03T15:22:01.747Z,8.38
2022-12-03T15:24:29.771Z,8.32
2022-12-03T15:26:57.893Z,8.28
2022-12-03T15:29:26.126Z,8.24
2022-12-03T15:31:54.387Z,8.19
2022-12-03T15:34:23.261Z,8.15
2022-12-03T15:36:51.499Z,8.14
2022-12-03T15:39:19.544Z,8.12
2022-12-03T15:41:48.495Z,8.08
2022-12-03T15:44:16.362Z,8.04
2022-12-03T15:46:44.589Z,8.04
2022-12-03T15:49:12.629Z,8.04
2022-12-03T15:51:40.600Z,8.04
2022-12-03T15:54:08.638Z,8.01
2022-12-03T15:56:37.697Z,7.96
2022-12-03T15:59:05.968Z,7.90
2022-12-03T16:01:34.054Z,7.82
2022-12-03T16:04:02.018Z,7.71
2022-12-03T16:06:30.021Z,7.66
2022-12-03T16:08:57.963Z,7.63
2022-12-03T16:11:26.135Z,7.65
2022-12-03T16:13:54.152Z,7.59
2022-12-03T16:16:22.155Z,7.69
2022-12-03T16:18:50.137Z,7.79
2022-12-03T16:21:23.378Z,7.81
2022-12-03T16:23:55.454Z,7.86
2022-12-03T16:26:23.294Z,7.85
2022-12-03T16:28:51.218Z,7.78
2022-12-03T16:31:19.532Z,7.69
2022-12-03T16:33:47.916Z,7.61
2022-12-03T16:36:16.464Z,7.49
2022-12-03T16:38:44.701Z,7.40
2022-12-03T16:41:12.661Z,7.33
2022-12-03T16:43:40.636Z,7.26
2022-12-03T16:46:15.089Z,7.22
2022-12-03T16:48:43.703Z,7.19
2022-12-03T16:51:11.943Z,7.16
2022-12-03T16:53:40.094Z,7.10
2022-12-03T16:56:08.701Z,7.05
2022-12-03T16:58:37.198Z,7.00
2022-12-03T17:01:06.190Z,6.94
2022-12-03T17:03:34.384Z,6.90
2022-12-03T17:06:03.396Z,6.88
2022-12-03T17:08:31.820Z,6.85
2022-12-03T17:10:59.813Z,6.83
2022-12-03T17:13:27.833Z,6.82
2022-12-03T17:15:55.749Z,6.80
2022-12-03T17:18:24.039Z,6.76
2022-12-03T17:20:52.601Z,6.71
2022-12-03T17:23:20.717Z,6.66
2022-12-03T17:25:48.732Z,6.64
2022-12-03T17:28:16.929Z,6.59
2022-12-03T17:30:45.704Z,6.59
2022-12-03T17:33:13.675Z,6.53
2022-12-03T17:35:42.304Z,6.49
2022-12-03T17:38:11.177Z,6.47
2022-12-03T17:40:39.285Z,6.45
2022-12-03T17:43:07.116Z,6.44
2022-12-03T17:45:36.803Z,6.41
2022-12-03T17:48:05.648Z,6.39
2022-12-03T17:50:34.489Z,6.35
2022-12-03T17:53:05.347Z,6.31
2022-12-03T17:55:40.997Z,6.29
2022-12-03T17:58:10.609Z,6.26
2022-12-03T18:00:39.025Z,6.25
2022-12-03T18:03:06.875Z,6.23
2022-12-03T18:05:34.812Z,6.21
2022-12-03T18:08:03.459Z,6.18
2022-12-03T18:10:31.485Z,6.17
2022-12-03T18:13:02.025Z,6.15
2022-12-03T18:15:31.396Z,6.13
2022-12-03T18:17:59.210Z,6.13
2022-12-03T18:20:27.634Z,6.13
2022-12-03T18:22:55.746Z,6.13
2022-12-03T18:25:23.631Z,6.13
2022-12-03T18:27:51.617Z,6.12
2022-12-03T18:30:19.546Z,6.04
2022-12-03T18:32:47.907Z,6.06
2022-12-03T18:35:15.669Z,6.12
2022-12-03T18:37:44.006Z,6.14
2022-12-03T18:40:20.173Z,6.15
2022-12-03T18:42:48.695Z,6.17
2022-12-03T18:45:16.807Z,6.19
2022-12-03T18:47:45.330Z,6.20
2022-12-03T18:50:13.707Z,6.20
2022-12-03T18:52:41.622Z,6.17
2022-12-03T18:55:18.094Z,6.13
2022-12-03T18:57:46.045Z,6.09
2022-12-03T19:00:14.849Z,6.08
2022-12-03T19:03:02.607Z,6.07
2022-12-03T19:05:34.238Z,6.06
2022-12-03T19:08:03.350Z,6.06
2022-12-03T19:10:31.461Z,6.07
2022-12-03T19:12:59.471Z,6.07
2022-12-03T19:15:27.360Z,6.08
2022-12-03T19:17:55.258Z,6.08
2022-12-03T19:20:23.268Z,6.07
2022-12-03T19:22:51.797Z,6.07
2022-12-03T19:25:19.699Z,6.10
2022-12-03T19:27:50.052Z,6.12
2022-12-03T19:30:18.140Z,6.13
2022-12-03T19:32:46.014Z,6.17
2022-12-03T19:35:13.855Z,6.19
2022-12-03T19:37:41.966Z,6.19
2022-12-03T19:40:10.403Z,6.20
2022-12-03T19:42:39.124Z,6.19
2022-12-03T19:45:08.331Z,6.19
2022-12-03T19:47:37.088Z,6.20
2022-12-03T19:50:05.943Z,6.21
2022-12-03T19:52:36.291Z,6.23
2022-12-03T19:55:05.168Z,6.23
2022-12-03T19:57:33.086Z,6.22
2022-12-03T20:00:01.325Z,6.19
2022-12-03T20:02:29.313Z,6.15
2022-12-03T20:04:57.422Z,6.13
2022-12-03T20:07:25.312Z,6.10
2022-12-03T20:09:53.606Z,6.10
2022-12-03T20:12:21.789Z,6.12
2022-12-03T20:14:50.090Z,6.12
2022-12-03T20:17:17.954Z,6.09
2022-12-03T20:19:46.083Z,6.07
2022-12-03T20:22:13.872Z,6.04
2022-12-03T20:24:41.819Z,6.01
2022-12-03T20:27:09.689Z,5.95
2022-12-03T20:29:37.900Z,5.92
2022-12-03T20:32:07.310Z,5.90
2022-12-03T20:34:36.014Z,5.87
2022-12-03T20:37:04.151Z,5.85
2022-12-03T20:39:32.217Z,5.82
2022-12-03T20:42:00.026Z,5.79
2022-12-03T20:44:27.898Z,5.77
2022-12-03T20:46:55.873Z,5.76
2022-12-03T20:49:23.921Z,5.74
2022-12-03T20:51:52.165Z,5.71
2022-12-03T20:54:20.136Z,5.68
2022-12-03T20:56:48.491Z,5.65
2022-12-03T20:59:17.557Z,5.63
2022-12-03T21:01:45.835Z,5.62
2022-12-03T21:04:13.831Z,5.62
2022-12-03T21:06:42.426Z,5.62
2022-12-03T21:09:11.876Z,5.59
2022-12-03T21:11:42.271Z,5.56
2022-12-03T21:14:11.629Z,5.53
2022-12-03T21:17:06.544Z,5.51
2022-12-03T21:19:28.258Z,5.49
2022-12-03T21:21:56.238Z,5.46
2022-12-03T21:24:24.103Z,5.44
2022-12-03T21:26:52.622Z,5.43
2022-12-03T21:29:20.587Z,5.42
2022-12-03T21:31:48.437Z,5.40
2022-12-03T21:34:16.420Z,5.38
2022-12-03T21:36:44.321Z,5.38
2022-12-03T21:39:12.328Z,5.39
2022-12-03T21:41:40.517Z,5.38
2022-12-03T21:44:28.387Z,5.37
2022-12-03T21:47:12.529Z,5.36
2022-12-03T21:49:42.444Z,5.35
2022-12-03T21:52:10.998Z,5.34
2022-12-03T21:54:38.960Z,5.34
2022-12-03T21:57:07.005Z,5.32
2022-12-03T21:59:34.934Z,5.31
2022-12-03T22:02:03.040Z,5.31
2022-12-03T22:04:31.213Z,5.30
2022-12-03T22:06:59.265Z,5.26
2022-12-03T22:09:27.268Z,5.23
2022-12-03T22:11:56.989Z,5.20
2022-12-03T22:14:25.507Z,5.19
2022-12-03T22:16:53.735Z,5.18
2022-12-03T22:19:23.407Z,5.16
2022-12-03T22:21:51.743Z,5.11
2022-12-03T22:24:19.942Z,5.05
2022-12-03T22:26:47.922Z,4.99
2022-12-03T22:29:16.204Z,4.97
2022-12-03T22:31:44.557Z,4.94
2022-12-03T22:34:13.067Z,4.93
2022-12-03T22:36:41.187Z,4.91
2022-12-03T22:39:09.166Z,4.92
2022-12-03T22:41:37.394Z,4.92
2022-12-03T22:44:05.386Z,4.94
2022-12-03T22:46:33.485Z,4.96
2022-12-03T22:49:06.824Z,4.97
2022-12-03T22:51:36.152Z,4.98
2022-12-03T22:54:04.643Z,4.96
2022-12-03T22:56:32.858Z,4.93
2022-12-03T22:59:00.916Z,4.91
2022-12-03T23:01:35.199Z,4.90
2022-12-03T23:04:03.877Z,4.88
2022-12-03T23:06:34.404Z,4.86
2022-12-03T23:09:04.551Z,4.85
2022-12-03T23:11:32.637Z,4.83
2022-12-03T23:14:01.412Z,4.81
2022-12-03T23:16:32.680Z,4.79
2022-12-03T23:19:02.267Z,4.78
2022-12-03T23:21:33.268Z,4.76
2022-12-03T23:24:03.683Z,4.73
2022-12-03T23:26:34.675Z,4.69
2022-12-03T23:29:03.459Z,4.68
2022-12-03T23:31:33.582Z,4.68
2022-12-03T23:34:02.871Z,4.68
2022-12-03T23:36:32.724Z,4.67
2022-12-03T23:39:00.832Z,4.69
2022-12-03T23:41:28.846Z,4.73
2022-12-03T23:43:57.584Z,4.76
2022-12-03T23:46:27.693Z,4.77
2022-12-03T23:48:58.753Z,4.79
2022-12-03T23:51:27.279Z,4.79
2022-12-03T23:53:56.510Z,4.82
2022-12-03T23:56:27.419Z,4.83
2022-12-03T23:58:56.635Z,4.83
